Rockwood, ME (04478)

6:41 PM EDT on August 04, 2015 (GMT -0400)
Moosehead | | Change Station
CLOSE
Current Station
Personal Weather Station
Location: Maine, ME
Elevation: 1024 ft
Nearby Weather Stations

Elev 1024 ft 45.58 °N, 69.71 °W | Updated 3 minutes ago

Partly Cloudy
Partly Cloudy
66.7 °F
Feels Like 66.7 °F
N
3.7
Wind Variable Wind from SW

Today
High -- | Low -- °F
--% Chance of Precip.
Yesterday
High -- | Low -- °F
Precip. -- in
5:25 AM 8:03 PM
Waning Gibbous, 74% visible
Pressure 29.81 in
Visibility 10.0 miles
Clouds Few 600 ft
Dew Point 62 °F
Humidity 86%
Rainfall 0.74 in
Snow Depth Not available.
UV 1 out of 12
Pollen 4.20 out of 12
Air Quality Not available.
Flu Activity Not available.
SPECI KMLT 042222Z AUTO 00000KT 10SM FEW006 18/16 A2981 RMK AO2 T01780161

More Conditions Fewer Conditions

Pressure 29.81 in
Visibility 10.0 miles
Clouds Few 600 ft
Dew Point 62 °F
Humidity 86%
Rainfall 0.74 in
Snow Depth Not available.
UV 1 out of 12
Pollen 4.20 out of 12
Air Quality Not available.
Flu Activity Not available.
SPECI KMLT 042222Z AUTO 00000KT 10SM FEW006 18/16 A2981 RMK AO2 T01780161

More Conditions Fewer Conditions

10-Day Weather Forecast

×

Almanac

Astronomy

Aug. 04, 2015 Rise Set
Actual Time
Civil Twilight
Nautical Twilight
Astronomical Twilight
Moon
Length of Visible Light
Length of Day
Tomorrow will be .
, % of the Moon is Illuminated

Today's Extremes

State Highs State Lows

Community

WunderPhotos

Upload Photos

1,844,011 photos uploaded!

WunderBlogs® & News

Nearby

Air Quality

  Air Quality AQ Index Pollutant
Not available.

Snow Depth

Station Depth Elevation

Earthquake Activity

City Distance Mag. Time & Date
Minimum magnitude displayed is 2.5.

Coastal Water Temperatures

Place Temperature

Stations

Nearby Weather Stations

Station Location Temp. Windchill Dew Point Humidity Wind Precip. Elev Updated Type
                   
Severe Thunderstorm Watch
Statement as of 6:24 PM EDT on August 04, 2015

Severe Thunderstorm Watch 469 remains in effect until 800 PM EDT

ME
. Maine counties included are

Androscoggin Aroostook Cumberland
Franklin Hancock Kennebec
Knox Lincoln Oxford
Penobscot Piscataquis Sagadahoc
Somerset Waldo Washington
York